Bramon, Sweden

2:33 AM CEST on August 04, 2015 (GMT +0200)
Sodermalm | | Change Station
CLOSE
Current Station
Personal Weather Station
Location: Sundsvall, VASTERNORRLAND
Elevation: 150 ft
Nearby Weather Stations

Elev 150 ft 62.38 °N, 17.31 °E | Updated 3 minutes ago

Clear
Clear
47.8 °F
Feels Like 48 °F
N
0.0
Wind Variable Wind from East
Gusts 1.6 mph

Today
High -- | Low -- °F
--% Chance of Precip.
Yesterday
High -- | Low -- °F
Precip. -- in
4:20 AM 9:28 PM
Waning Gibbous, 83% visible
Pressure 30.12 in
Visibility 6.2 miles
Clouds
Windchill 48 °F
Dew Point 47 °F
Humidity 97%
Rainfall 0.00 in
Snow Depth Not available.
UV Not available.
Pollen Not available.
Air Quality Not available.
Flu Activity Not available.
METAR ESNN 040020Z AUTO 32005KT 9999 NCD 09/08 Q1020

More Conditions Fewer Conditions

Pressure 30.12 in
Visibility 6.2 miles
Clouds
Windchill 48 °F
Dew Point 47 °F
Humidity 97%
Rainfall 0.00 in
Snow Depth Not available.
UV Not available.
Pollen Not available.
Air Quality Not available.
Flu Activity Not available.
METAR ESNN 040020Z AUTO 32005KT 9999 NCD 09/08 Q1020

More Conditions Fewer Conditions

10-Day Weather Forecast

×

Almanac

Astronomy

Aug. 04, 2015 Rise Set
Actual Time
Civil Twilight
Nautical Twilight
Astronomical Twilight
Moon
Length of Visible Light
Length of Day
Tomorrow will be .
, % of the Moon is Illuminated

Today's Extremes

Country Highs Country Lows

Community

WunderPhotos

Upload Photos

1,843,794 photos uploaded!

WunderBlogs® & News

Nearby

Air Quality

  Air Quality AQ Index Pollutant
Not available.

Snow Depth

Station Depth Elevation

Earthquake Activity

City Distance Mag. Time & Date
Minimum magnitude displayed is 2.5.

Coastal Water Temperatures

Place Temperature

Stations

Nearby Weather Stations

Station Location Temp. Windchill Dew Point Humidity Wind Precip. Elev Updated Type